Terminal Aerodrome Forecast
Issued by NWS Northern Indiana

Home | Current Version | Previous Version | Graphics & Text | Print | Product List | Glossary On
Versions: 1 2 3 4 5 6 7 8 9 10 11 12 13
000
FTUS43 KIWX 261720
TAFFWA
TAF
KFWA 261720Z 2618/2718 23012KT P6SM VCTS BKN035CB
      TEMPO 2618/2619 -SHRA BKN025
     FM261900 18012KT P6SM BKN045
     FM270000 20006KT P6SM SCT020
      TEMPO 2710/2714 5SM BR BKN020
     FM271500 22012KT P6SM SCT035=

USA.gov is the U.S. government's official web portal to all federal, state and local government web resources and services.